sensor_id;sensor_type;location;lat;lon;timestamp;P1;durP1;ratioP1;P2;durP2;ratioP2
8887;SDS011;4480;52.370;9.748;2023-09-07T00:01:12;5.50;;;4.83;;
8887;SDS011;4480;52.370;9.748;2023-09-07T00:03:39;5.90;;;5.10;;
8887;SDS011;4480;52.370;9.748;2023-09-07T00:06:06;5.10;;;4.60;;
8887;SDS011;4480;52.370;9.748;2023-09-07T00:08:33;6.40;;;5.40;;
8887;SDS011;4480;52.370;9.748;2023-09-07T00:11:02;9.50;;;5.77;;
8887;SDS011;4480;52.370;9.748;2023-09-07T00:13:29;9.80;;;5.17;;
8887;SDS011;4480;52.370;9.748;2023-09-07T00:15:59;6.80;;;5.20;;
8887;SDS011;4480;52.370;9.748;2023-09-07T00:18:26;7.40;;;5.63;;
8887;SDS011;4480;52.370;9.748;2023-09-07T00:20:53;7.43;;;5.97;;
8887;SDS011;4480;52.370;9.748;2023-09-07T00:23:20;6.17;;;5.03;;
8887;SDS011;4480;52.370;9.748;2023-09-07T00:25:47;6.23;;;5.30;;
8887;SDS011;4480;52.370;9.748;2023-09-07T00:28:14;7.80;;;5.50;;
8887;SDS011;4480;52.370;9.748;2023-09-07T00:30:40;6.27;;;5.17;;
8887;SDS011;4480;52.370;9.748;2023-09-07T00:33:08;7.87;;;5.60;;
8887;SDS011;4480;52.370;9.748;2023-09-07T00:35:36;8.00;;;5.67;;
8887;SDS011;4480;52.370;9.748;2023-09-07T00:38:03;7.60;;;5.93;;
8887;SDS011;4480;52.370;9.748;2023-09-07T00:40:30;6.80;;;5.70;;
8887;SDS011;4480;52.370;9.748;2023-09-07T00:42:58;6.17;;;5.57;;
8887;SDS011;4480;52.370;9.748;2023-09-07T00:45:25;7.60;;;4.87;;
8887;SDS011;4480;52.370;9.748;2023-09-07T00:47:52;6.10;;;5.50;;
8887;SDS011;4480;52.370;9.748;2023-09-07T00:50:20;6.13;;;5.63;;
8887;SDS011;4480;52.370;9.748;2023-09-07T00:52:47;7.47;;;6.00;;
8887;SDS011;4480;52.370;9.748;2023-09-07T00:55:14;6.37;;;5.30;;
8887;SDS011;4480;52.370;9.748;2023-09-07T00:57:41;7.43;;;5.40;;
8887;SDS011;4480;52.370;9.748;2023-09-07T01:00:08;7.50;;;5.67;;
8887;SDS011;4480;52.370;9.748;2023-09-07T01:02:37;10.30;;;6.10;;
8887;SDS011;4480;52.370;9.748;2023-09-07T01:05:03;8.23;;;5.70;;
8887;SDS011;4480;52.370;9.748;2023-09-07T01:07:35;5.23;;;4.80;;
8887;SDS011;4480;52.370;9.748;2023-09-07T01:10:04;6.87;;;6.17;;
8887;SDS011;4480;52.370;9.748;2023-09-07T01:12:32;8.37;;;6.63;;
8887;SDS011;4480;52.370;9.748;2023-09-07T01:14:59;7.80;;;6.17;;
8887;SDS011;4480;52.370;9.748;2023-09-07T01:17:26;7.57;;;6.80;;
8887;SDS011;4480;52.370;9.748;2023-09-07T01:19:53;7.50;;;6.27;;
8887;SDS011;4480;52.370;9.748;2023-09-07T01:22:25;6.80;;;6.10;;
8887;SDS011;4480;52.370;9.748;2023-09-07T01:24:52;8.30;;;6.30;;
8887;SDS011;4480;52.370;9.748;2023-09-07T01:27:20;7.57;;;6.20;;
8887;SDS011;4480;52.370;9.748;2023-09-07T01:29:46;9.17;;;6.57;;
8887;SDS011;4480;52.370;9.748;2023-09-07T01:32:13;6.40;;;5.77;;
8887;SDS011;4480;52.370;9.748;2023-09-07T01:34:40;7.60;;;5.83;;
8887;SDS011;4480;52.370;9.748;2023-09-07T01:37:06;8.20;;;5.97;;
8887;SDS011;4480;52.370;9.748;2023-09-07T01:39:35;8.83;;;6.77;;
8887;SDS011;4480;52.370;9.748;2023-09-07T01:42:02;8.37;;;6.30;;
8887;SDS011;4480;52.370;9.748;2023-09-07T01:44:29;6.90;;;6.20;;
8887;SDS011;4480;52.370;9.748;2023-09-07T01:46:55;6.60;;;5.83;;
8887;SDS011;4480;52.370;9.748;2023-09-07T01:49:22;8.20;;;6.10;;
8887;SDS011;4480;52.370;9.748;2023-09-07T01:51:50;10.23;;;6.37;;
8887;SDS011;4480;52.370;9.748;2023-09-07T01:54:18;8.10;;;6.53;;
8887;SDS011;4480;52.370;9.748;2023-09-07T01:56:48;8.33;;;6.20;;
8887;SDS011;4480;52.370;9.748;2023-09-07T01:59:15;6.80;;;6.10;;
8887;SDS011;4480;52.370;9.748;2023-09-07T02:01:41;7.30;;;6.07;;
8887;SDS011;4480;52.370;9.748;2023-09-07T02:04:08;7.80;;;6.33;;
8887;SDS011;4480;52.370;9.748;2023-09-07T02:06:35;7.80;;;7.00;;
8887;SDS011;4480;52.370;9.748;2023-09-07T02:09:01;9.47;;;6.77;;
8887;SDS011;4480;52.370;9.748;2023-09-07T02:11:29;7.77;;;6.57;;
8887;SDS011;4480;52.370;9.748;2023-09-07T02:13:57;8.33;;;6.37;;
8887;SDS011;4480;52.370;9.748;2023-09-07T02:16:24;7.90;;;6.87;;
8887;SDS011;4480;52.370;9.748;2023-09-07T02:18:59;8.03;;;6.70;;
8887;SDS011;4480;52.370;9.748;2023-09-07T02:21:27;8.67;;;5.93;;
8887;SDS011;4480;52.370;9.748;2023-09-07T02:23:54;7.37;;;6.53;;
8887;SDS011;4480;52.370;9.748;2023-09-07T02:26:20;7.47;;;6.80;;
8887;SDS011;4480;52.370;9.748;2023-09-07T02:28:47;11.60;;;6.97;;
8887;SDS011;4480;52.370;9.748;2023-09-07T02:31:15;10.80;;;7.00;;
8887;SDS011;4480;52.370;9.748;2023-09-07T02:33:42;8.20;;;6.50;;
8887;SDS011;4480;52.370;9.748;2023-09-07T02:36:09;9.10;;;7.10;;
8887;SDS011;4480;52.370;9.748;2023-09-07T02:38:35;8.23;;;6.80;;
8887;SDS011;4480;52.370;9.748;2023-09-07T02:41:02;7.83;;;7.00;;
8887;SDS011;4480;52.370;9.748;2023-09-07T02:43:29;8.00;;;6.80;;
8887;SDS011;4480;52.370;9.748;2023-09-07T02:45:56;14.63;;;7.40;;
8887;SDS011;4480;52.370;9.748;2023-09-07T02:48:24;8.50;;;6.87;;
8887;SDS011;4480;52.370;9.748;2023-09-07T02:50:50;11.73;;;7.13;;
8887;SDS011;4480;52.370;9.748;2023-09-07T02:53:17;8.73;;;7.00;;
8887;SDS011;4480;52.370;9.748;2023-09-07T02:55:44;9.67;;;6.40;;
8887;SDS011;4480;52.370;9.748;2023-09-07T02:58:11;10.30;;;6.90;;
8887;SDS011;4480;52.370;9.748;2023-09-07T03:00:40;11.47;;;6.90;;
8887;SDS011;4480;52.370;9.748;2023-09-07T03:03:09;8.37;;;6.83;;
8887;SDS011;4480;52.370;9.748;2023-09-07T03:05:38;15.00;;;7.17;;
8887;SDS011;4480;52.370;9.748;2023-09-07T03:08:05;12.67;;;8.10;;
8887;SDS011;4480;52.370;9.748;2023-09-07T03:10:33;8.47;;;7.60;;
8887;SDS011;4480;52.370;9.748;2023-09-07T03:13:00;8.60;;;7.60;;
8887;SDS011;4480;52.370;9.748;2023-09-07T03:15:28;8.20;;;7.03;;
8887;SDS011;4480;52.370;9.748;2023-09-07T03:17:55;8.67;;;7.77;;
8887;SDS011;4480;52.370;9.748;2023-09-07T03:20:22;9.67;;;7.57;;
8887;SDS011;4480;52.370;9.748;2023-09-07T03:22:50;8.97;;;7.40;;
8887;SDS011;4480;52.370;9.748;2023-09-07T03:25:17;12.73;;;7.80;;
8887;SDS011;4480;52.370;9.748;2023-09-07T03:27:43;8.47;;;7.63;;
8887;SDS011;4480;52.370;9.748;2023-09-07T03:30:10;9.03;;;8.30;;
8887;SDS011;4480;52.370;9.748;2023-09-07T03:32:37;9.63;;;8.60;;
8887;SDS011;4480;52.370;9.748;2023-09-07T03:35:04;13.90;;;7.60;;
8887;SDS011;4480;52.370;9.748;2023-09-07T03:37:35;11.83;;;8.13;;
8887;SDS011;4480;52.370;9.748;2023-09-07T03:40:04;11.43;;;8.43;;
8887;SDS011;4480;52.370;9.748;2023-09-07T03:42:34;8.30;;;7.50;;
8887;SDS011;4480;52.370;9.748;2023-09-07T03:45:01;8.97;;;8.07;;
8887;SDS011;4480;52.370;9.748;2023-09-07T03:47:28;8.97;;;7.53;;
8887;SDS011;4480;52.370;9.748;2023-09-07T03:49:55;9.07;;;8.17;;
8887;SDS011;4480;52.370;9.748;2023-09-07T03:52:22;9.60;;;7.80;;
8887;SDS011;4480;52.370;9.748;2023-09-07T03:54:49;11.00;;;8.00;;
8887;SDS011;4480;52.370;9.748;2023-09-07T03:57:18;9.13;;;8.13;;
8887;SDS011;4480;52.370;9.748;2023-09-07T03:59:45;13.47;;;9.23;;
8887;SDS011;4480;52.370;9.748;2023-09-07T04:02:12;10.03;;;9.00;;
8887;SDS011;4480;52.370;9.748;2023-09-07T04:04:39;14.47;;;8.77;;
8887;SDS011;4480;52.370;9.748;2023-09-07T04:07:06;11.27;;;7.77;;
8887;SDS011;4480;52.370;9.748;2023-09-07T04:12:09;10.67;;;9.37;;
8887;SDS011;4480;52.370;9.748;2023-09-07T04:14:36;10.27;;;8.60;;
8887;SDS011;4480;52.370;9.748;2023-09-07T04:17:03;11.07;;;8.67;;
8887;SDS011;4480;52.370;9.748;2023-09-07T04:19:30;9.90;;;9.00;;
8887;SDS011;4480;52.370;9.748;2023-09-07T04:21:57;10.53;;;9.43;;
8887;SDS011;4480;52.370;9.748;2023-09-07T04:24:23;10.57;;;7.97;;
8887;SDS011;4480;52.370;9.748;2023-09-07T04:26:52;10.03;;;9.03;;
8887;SDS011;4480;52.370;9.748;2023-09-07T04:29:20;9.63;;;8.47;;
8887;SDS011;4480;52.370;9.748;2023-09-07T04:31:47;10.17;;;9.17;;
8887;SDS011;4480;52.370;9.748;2023-09-07T04:34:13;9.83;;;8.93;;
8887;SDS011;4480;52.370;9.748;2023-09-07T04:36:40;9.07;;;8.27;;
8887;SDS011;4480;52.370;9.748;2023-09-07T04:39:07;9.77;;;8.87;;
8887;SDS011;4480;52.370;9.748;2023-09-07T04:41:33;11.13;;;9.80;;
8887;SDS011;4480;52.370;9.748;2023-09-07T04:44:00;9.37;;;8.33;;
8887;SDS011;4480;52.370;9.748;2023-09-07T04:46:28;9.10;;;8.30;;
8887;SDS011;4480;52.370;9.748;2023-09-07T04:48:55;11.30;;;9.80;;
8887;SDS011;4480;52.370;9.748;2023-09-07T04:51:22;14.37;;;9.77;;
8887;SDS011;4480;52.370;9.748;2023-09-07T04:53:50;10.70;;;9.13;;
8887;SDS011;4480;52.370;9.748;2023-09-07T04:56:17;10.73;;;9.63;;
8887;SDS011;4480;52.370;9.748;2023-09-07T04:58:45;9.73;;;8.53;;
8887;SDS011;4480;52.370;9.748;2023-09-07T05:01:12;11.40;;;9.40;;
8887;SDS011;4480;52.370;9.748;2023-09-07T05:03:40;11.70;;;9.63;;
8887;SDS011;4480;52.370;9.748;2023-09-07T05:06:07;9.70;;;8.50;;
8887;SDS011;4480;52.370;9.748;2023-09-07T05:08:33;10.63;;;9.53;;
8887;SDS011;4480;52.370;9.748;2023-09-07T05:11:01;12.73;;;9.10;;
8887;SDS011;4480;52.370;9.748;2023-09-07T05:13:28;11.50;;;9.50;;
8887;SDS011;4480;52.370;9.748;2023-09-07T05:15:57;10.17;;;8.97;;
8887;SDS011;4480;52.370;9.748;2023-09-07T05:18:25;10.60;;;9.50;;
8887;SDS011;4480;52.370;9.748;2023-09-07T05:20:53;9.30;;;8.37;;
8887;SDS011;4480;52.370;9.748;2023-09-07T05:23:20;10.57;;;9.43;;
8887;SDS011;4480;52.370;9.748;2023-09-07T05:25:48;10.20;;;9.20;;
8887;SDS011;4480;52.370;9.748;2023-09-07T05:28:17;10.53;;;9.63;;
8887;SDS011;4480;52.370;9.748;2023-09-07T05:30:45;12.67;;;9.03;;
8887;SDS011;4480;52.370;9.748;2023-09-07T05:33:12;10.53;;;8.93;;
8887;SDS011;4480;52.370;9.748;2023-09-07T05:35:40;10.40;;;9.40;;
8887;SDS011;4480;52.370;9.748;2023-09-07T05:38:08;11.17;;;8.80;;
8887;SDS011;4480;52.370;9.748;2023-09-07T05:40:35;10.77;;;9.67;;
8887;SDS011;4480;52.370;9.748;2023-09-07T05:43:03;12.03;;;10.17;;
8887;SDS011;4480;52.370;9.748;2023-09-07T05:45:30;12.80;;;10.23;;
8887;SDS011;4480;52.370;9.748;2023-09-07T05:47:57;9.63;;;8.47;;
8887;SDS011;4480;52.370;9.748;2023-09-07T05:50:24;10.77;;;9.33;;
8887;SDS011;4480;52.370;9.748;2023-09-07T05:52:51;10.23;;;9.27;;
8887;SDS011;4480;52.370;9.748;2023-09-07T05:55:19;10.37;;;9.33;;
8887;SDS011;4480;52.370;9.748;2023-09-07T05:57:46;11.50;;;10.30;;
8887;SDS011;4480;52.370;9.748;2023-09-07T06:00:13;10.77;;;9.43;;
8887;SDS011;4480;52.370;9.748;2023-09-07T06:02:42;10.03;;;9.03;;
8887;SDS011;4480;52.370;9.748;2023-09-07T06:05:09;14.70;;;9.50;;
8887;SDS011;4480;52.370;9.748;2023-09-07T06:07:36;10.87;;;9.77;;
8887;SDS011;4480;52.370;9.748;2023-09-07T06:10:03;10.50;;;8.80;;
8887;SDS011;4480;52.370;9.748;2023-09-07T06:12:33;17.87;;;10.10;;
8887;SDS011;4480;52.370;9.748;2023-09-07T06:15:00;9.47;;;8.50;;
8887;SDS011;4480;52.370;9.748;2023-09-07T06:17:28;11.07;;;9.53;;
8887;SDS011;4480;52.370;9.748;2023-09-07T06:19:55;9.77;;;8.87;;
8887;SDS011;4480;52.370;9.748;2023-09-07T06:22:22;10.70;;;9.70;;
8887;SDS011;4480;52.370;9.748;2023-09-07T06:24:49;11.57;;;10.37;;
8887;SDS011;4480;52.370;9.748;2023-09-07T06:27:15;10.00;;;8.70;;
8887;SDS011;4480;52.370;9.748;2023-09-07T06:29:44;11.07;;;9.97;;
8887;SDS011;4480;52.370;9.748;2023-09-07T06:32:10;11.47;;;10.00;;
8887;SDS011;4480;52.370;9.748;2023-09-07T06:34:37;11.53;;;10.27;;
8887;SDS011;4480;52.370;9.748;2023-09-07T06:37:04;10.97;;;9.53;;
8887;SDS011;4480;52.370;9.748;2023-09-07T06:39:31;10.20;;;9.03;;
8887;SDS011;4480;52.370;9.748;2023-09-07T06:41:58;13.23;;;9.47;;
8887;SDS011;4480;52.370;9.748;2023-09-07T06:44:25;11.53;;;10.20;;
8887;SDS011;4480;52.370;9.748;2023-09-07T06:46:53;10.10;;;9.00;;
8887;SDS011;4480;52.370;9.748;2023-09-07T06:49:21;11.13;;;8.37;;
8887;SDS011;4480;52.370;9.748;2023-09-07T06:51:47;16.67;;;10.57;;
8887;SDS011;4480;52.370;9.748;2023-09-07T06:54:14;10.73;;;9.63;;
8887;SDS011;4480;52.370;9.748;2023-09-07T06:56:41;12.23;;;9.03;;
8887;SDS011;4480;52.370;9.748;2023-09-07T06:59:07;12.73;;;9.07;;
8887;SDS011;4480;52.370;9.748;2023-09-07T07:01:34;10.13;;;8.63;;
8887;SDS011;4480;52.370;9.748;2023-09-07T07:04:03;12.60;;;9.57;;
8887;SDS011;4480;52.370;9.748;2023-09-07T07:06:30;11.73;;;9.40;;
8887;SDS011;4480;52.370;9.748;2023-09-07T07:08:56;12.57;;;8.80;;
8887;SDS011;4480;52.370;9.748;2023-09-07T07:11:23;9.53;;;8.40;;
8887;SDS011;4480;52.370;9.748;2023-09-07T07:13:50;12.23;;;9.17;;
8887;SDS011;4480;52.370;9.748;2023-09-07T07:16:17;11.77;;;10.07;;
8887;SDS011;4480;52.370;9.748;2023-09-07T07:18:43;11.37;;;8.70;;
8887;SDS011;4480;52.370;9.748;2023-09-07T07:21:11;11.30;;;8.53;;
8887;SDS011;4480;52.370;9.748;2023-09-07T07:23:38;15.00;;;9.10;;
8887;SDS011;4480;52.370;9.748;2023-09-07T07:26:05;9.03;;;8.13;;
8887;SDS011;4480;52.370;9.748;2023-09-07T07:28:31;12.43;;;8.47;;
8887;SDS011;4480;52.370;9.748;2023-09-07T07:30:58;8.97;;;8.07;;
8887;SDS011;4480;52.370;9.748;2023-09-07T07:33:32;9.23;;;8.13;;
8887;SDS011;4480;52.370;9.748;2023-09-07T07:35:59;8.83;;;7.93;;
8887;SDS011;4480;52.370;9.748;2023-09-07T07:38:27;10.43;;;8.07;;
8887;SDS011;4480;52.370;9.748;2023-09-07T07:40:54;9.17;;;8.27;;
8887;SDS011;4480;52.370;9.748;2023-09-07T07:43:20;9.13;;;8.17;;
8887;SDS011;4480;52.370;9.748;2023-09-07T07:45:47;9.97;;;8.63;;
8887;SDS011;4480;52.370;9.748;2023-09-07T07:48:14;9.70;;;8.70;;
8887;SDS011;4480;52.370;9.748;2023-09-07T07:50:40;9.60;;;8.03;;
8887;SDS011;4480;52.370;9.748;2023-09-07T07:53:08;8.90;;;8.00;;
8887;SDS011;4480;52.370;9.748;2023-09-07T07:55:36;9.23;;;8.27;;
8887;SDS011;4480;52.370;9.748;2023-09-07T07:58:04;8.10;;;7.17;;
8887;SDS011;4480;52.370;9.748;2023-09-07T08:00:32;8.23;;;7.10;;
8887;SDS011;4480;52.370;9.748;2023-09-07T08:02:59;11.47;;;7.30;;
8887;SDS011;4480;52.370;9.748;2023-09-07T08:05:27;10.33;;;7.40;;
8887;SDS011;4480;52.370;9.748;2023-09-07T08:07:54;8.53;;;7.23;;
8887;SDS011;4480;52.370;9.748;2023-09-07T08:10:20;9.83;;;7.10;;
8887;SDS011;4480;52.370;9.748;2023-09-07T08:12:51;9.47;;;7.90;;
8887;SDS011;4480;52.370;9.748;2023-09-07T08:15:19;8.43;;;7.60;;
8887;SDS011;4480;52.370;9.748;2023-09-07T08:17:47;7.07;;;6.47;;
8887;SDS011;4480;52.370;9.748;2023-09-07T08:20:15;12.03;;;6.63;;
8887;SDS011;4480;52.370;9.748;2023-09-07T08:22:41;9.47;;;7.10;;
8887;SDS011;4480;52.370;9.748;2023-09-07T08:25:09;7.30;;;6.60;;
8887;SDS011;4480;52.370;9.748;2023-09-07T08:27:38;12.10;;;7.27;;
8887;SDS011;4480;52.370;9.748;2023-09-07T08:30:09;8.10;;;6.90;;
8887;SDS011;4480;52.370;9.748;2023-09-07T08:32:36;7.93;;;7.13;;
8887;SDS011;4480;52.370;9.748;2023-09-07T08:35:04;7.07;;;6.37;;
8887;SDS011;4480;52.370;9.748;2023-09-07T08:37:32;7.80;;;7.00;;
8887;SDS011;4480;52.370;9.748;2023-09-07T08:39:59;8.37;;;6.70;;
8887;SDS011;4480;52.370;9.748;2023-09-07T08:42:27;6.97;;;6.27;;
8887;SDS011;4480;52.370;9.748;2023-09-07T08:44:54;6.47;;;5.83;;
8887;SDS011;4480;52.370;9.748;2023-09-07T08:47:24;7.37;;;6.10;;
8887;SDS011;4480;52.370;9.748;2023-09-07T08:49:55;8.20;;;6.80;;
8887;SDS011;4480;52.370;9.748;2023-09-07T08:52:23;7.90;;;7.20;;
8887;SDS011;4480;52.370;9.748;2023-09-07T08:54:50;9.03;;;6.20;;
8887;SDS011;4480;52.370;9.748;2023-09-07T08:57:18;8.27;;;6.10;;
8887;SDS011;4480;52.370;9.748;2023-09-07T08:59:46;7.23;;;5.87;;
8887;SDS011;4480;52.370;9.748;2023-09-07T09:02:13;6.23;;;5.60;;
8887;SDS011;4480;52.370;9.748;2023-09-07T09:04:42;6.10;;;5.50;;
8887;SDS011;4480;52.370;9.748;2023-09-07T09:07:09;8.13;;;7.10;;
8887;SDS011;4480;52.370;9.748;2023-09-07T09:09:36;7.20;;;6.27;;
8887;SDS011;4480;52.370;9.748;2023-09-07T09:12:06;9.53;;;5.63;;
8887;SDS011;4480;52.370;9.748;2023-09-07T09:14:34;9.70;;;5.73;;
8887;SDS011;4480;52.370;9.748;2023-09-07T09:17:00;8.80;;;5.77;;
8887;SDS011;4480;52.370;9.748;2023-09-07T09:19:31;8.10;;;6.80;;
8887;SDS011;4480;52.370;9.748;2023-09-07T09:21:59;6.27;;;5.67;;
8887;SDS011;4480;52.370;9.748;2023-09-07T09:24:31;8.40;;;6.07;;
8887;SDS011;4480;52.370;9.748;2023-09-07T09:26:58;6.57;;;5.97;;
8887;SDS011;4480;52.370;9.748;2023-09-07T09:29:25;6.90;;;5.93;;
8887;SDS011;4480;52.370;9.748;2023-09-07T09:31:52;6.87;;;4.93;;
8887;SDS011;4480;52.370;9.748;2023-09-07T09:34:19;6.53;;;5.83;;
8887;SDS011;4480;52.370;9.748;2023-09-07T09:36:47;7.33;;;6.20;;
8887;SDS011;4480;52.370;9.748;2023-09-07T09:39:22;9.70;;;6.90;;
8887;SDS011;4480;52.370;9.748;2023-09-07T09:41:49;6.93;;;6.20;;
8887;SDS011;4480;52.370;9.748;2023-09-07T09:44:17;8.13;;;5.67;;
8887;SDS011;4480;52.370;9.748;2023-09-07T09:46:46;9.03;;;5.57;;
8887;SDS011;4480;52.370;9.748;2023-09-07T09:49:15;6.90;;;6.20;;
8887;SDS011;4480;52.370;9.748;2023-09-07T09:51:44;7.20;;;5.90;;
8887;SDS011;4480;52.370;9.748;2023-09-07T09:54:13;8.50;;;6.70;;
8887;SDS011;4480;52.370;9.748;2023-09-07T09:56:44;6.97;;;5.73;;
8887;SDS011;4480;52.370;9.748;2023-09-07T09:59:11;8.97;;;6.00;;
8887;SDS011;4480;52.370;9.748;2023-09-07T10:01:39;5.80;;;5.10;;
8887;SDS011;4480;52.370;9.748;2023-09-07T10:04:09;7.27;;;6.50;;
8887;SDS011;4480;52.370;9.748;2023-09-07T10:06:38;7.10;;;6.23;;
8887;SDS011;4480;52.370;9.748;2023-09-07T10:09:05;10.17;;;6.33;;
8887;SDS011;4480;52.370;9.748;2023-09-07T10:11:36;6.63;;;6.03;;
8887;SDS011;4480;52.370;9.748;2023-09-07T10:14:05;9.43;;;6.03;;
8887;SDS011;4480;52.370;9.748;2023-09-07T10:16:42;7.90;;;5.90;;
8887;SDS011;4480;52.370;9.748;2023-09-07T10:19:16;8.27;;;6.40;;
8887;SDS011;4480;52.370;9.748;2023-09-07T10:21:43;8.20;;;5.67;;
8887;SDS011;4480;52.370;9.748;2023-09-07T10:24:10;13.23;;;6.50;;
8887;SDS011;4480;52.370;9.748;2023-09-07T10:26:37;7.03;;;5.73;;
8887;SDS011;4480;52.370;9.748;2023-09-07T10:29:05;10.63;;;6.07;;
8887;SDS011;4480;52.370;9.748;2023-09-07T10:31:32;7.13;;;6.23;;
8887;SDS011;4480;52.370;9.748;2023-09-07T10:34:08;6.83;;;5.80;;
8887;SDS011;4480;52.370;9.748;2023-09-07T10:36:35;8.00;;;6.17;;
8887;SDS011;4480;52.370;9.748;2023-09-07T10:39:03;7.73;;;6.17;;
8887;SDS011;4480;52.370;9.748;2023-09-07T10:41:40;6.67;;;5.90;;
8887;SDS011;4480;52.370;9.748;2023-09-07T10:44:09;7.13;;;5.77;;
8887;SDS011;4480;52.370;9.748;2023-09-07T10:46:37;7.23;;;5.17;;
8887;SDS011;4480;52.370;9.748;2023-09-07T10:49:06;8.17;;;6.10;;
8887;SDS011;4480;52.370;9.748;2023-09-07T10:51:39;7.10;;;5.90;;
8887;SDS011;4480;52.370;9.748;2023-09-07T10:54:14;7.70;;;5.47;;
8887;SDS011;4480;52.370;9.748;2023-09-07T10:56:43;8.80;;;5.10;;
8887;SDS011;4480;52.370;9.748;2023-09-07T10:59:12;7.70;;;5.90;;
8887;SDS011;4480;52.370;9.748;2023-09-07T11:01:39;9.60;;;6.10;;
8887;SDS011;4480;52.370;9.748;2023-09-07T11:04:06;8.80;;;7.30;;
8887;SDS011;4480;52.370;9.748;2023-09-07T11:06:36;6.33;;;5.60;;
8887;SDS011;4480;52.370;9.748;2023-09-07T11:09:03;8.77;;;6.07;;
8887;SDS011;4480;52.370;9.748;2023-09-07T11:11:34;6.53;;;5.93;;
8887;SDS011;4480;52.370;9.748;2023-09-07T11:14:01;9.33;;;6.40;;
8887;SDS011;4480;52.370;9.748;2023-09-07T11:16:30;6.50;;;5.70;;
8887;SDS011;4480;52.370;9.748;2023-09-07T11:19:02;7.53;;;5.57;;
8887;SDS011;4480;52.370;9.748;2023-09-07T11:21:29;8.47;;;4.97;;
8887;SDS011;4480;52.370;9.748;2023-09-07T11:23:57;7.10;;;5.80;;
8887;SDS011;4480;52.370;9.748;2023-09-07T11:26:24;6.27;;;5.70;;
8887;SDS011;4480;52.370;9.748;2023-09-07T11:28:51;5.60;;;5.00;;
8887;SDS011;4480;52.370;9.748;2023-09-07T11:31:18;6.60;;;5.23;;
8887;SDS011;4480;52.370;9.748;2023-09-07T11:33:47;6.33;;;5.73;;
8887;SDS011;4480;52.370;9.748;2023-09-07T11:36:14;5.77;;;5.00;;
8887;SDS011;4480;52.370;9.748;2023-09-07T11:38:42;6.00;;;5.20;;
8887;SDS011;4480;52.370;9.748;2023-09-07T11:41:10;5.83;;;5.37;;
8887;SDS011;4480;52.370;9.748;2023-09-07T11:43:36;7.00;;;6.20;;
8887;SDS011;4480;52.370;9.748;2023-09-07T11:46:04;5.60;;;5.10;;
8887;SDS011;4480;52.370;9.748;2023-09-07T11:48:31;6.67;;;5.30;;
8887;SDS011;4480;52.370;9.748;2023-09-07T11:51:00;5.90;;;5.20;;
8887;SDS011;4480;52.370;9.748;2023-09-07T11:53:27;6.10;;;5.50;;
8887;SDS011;4480;52.370;9.748;2023-09-07T11:55:55;8.07;;;5.50;;
8887;SDS011;4480;52.370;9.748;2023-09-07T11:58:23;5.63;;;4.93;;
8887;SDS011;4480;52.370;9.748;2023-09-07T12:00:51;6.97;;;5.93;;
8887;SDS011;4480;52.370;9.748;2023-09-07T12:03:18;6.60;;;5.90;;
8887;SDS011;4480;52.370;9.748;2023-09-07T12:05:48;6.20;;;4.43;;
8887;SDS011;4480;52.370;9.748;2023-09-07T12:08:16;8.30;;;4.80;;
8887;SDS011;4480;52.370;9.748;2023-09-07T12:10:43;6.63;;;5.47;;
8887;SDS011;4480;52.370;9.748;2023-09-07T12:13:09;8.80;;;5.10;;
8887;SDS011;4480;52.370;9.748;2023-09-07T12:15:36;6.33;;;5.17;;
8887;SDS011;4480;52.370;9.748;2023-09-07T12:18:03;6.70;;;5.07;;
8887;SDS011;4480;52.370;9.748;2023-09-07T12:20:30;5.13;;;4.60;;
8887;SDS011;4480;52.370;9.748;2023-09-07T12:22:57;6.53;;;5.20;;
8887;SDS011;4480;52.370;9.748;2023-09-07T12:25:25;5.50;;;5.00;;
8887;SDS011;4480;52.370;9.748;2023-09-07T12:27:52;5.50;;;4.67;;
8887;SDS011;4480;52.370;9.748;2023-09-07T12:30:19;5.90;;;5.40;;
8887;SDS011;4480;52.370;9.748;2023-09-07T12:32:47;5.27;;;4.53;;
8887;SDS011;4480;52.370;9.748;2023-09-07T12:35:15;5.37;;;4.87;;
8887;SDS011;4480;52.370;9.748;2023-09-07T12:37:42;4.30;;;3.90;;
8887;SDS011;4480;52.370;9.748;2023-09-07T12:40:09;8.70;;;4.73;;
8887;SDS011;4480;52.370;9.748;2023-09-07T12:42:39;9.00;;;4.40;;
8887;SDS011;4480;52.370;9.748;2023-09-07T12:45:07;5.63;;;3.97;;
8887;SDS011;4480;52.370;9.748;2023-09-07T12:47:35;4.47;;;4.07;;
8887;SDS011;4480;52.370;9.748;2023-09-07T12:50:02;4.53;;;4.00;;
8887;SDS011;4480;52.370;9.748;2023-09-07T12:52:30;4.70;;;3.83;;
8887;SDS011;4480;52.370;9.748;2023-09-07T12:54:57;4.40;;;4.00;;
8887;SDS011;4480;52.370;9.748;2023-09-07T12:57:23;7.53;;;4.37;;
8887;SDS011;4480;52.370;9.748;2023-09-07T12:59:51;4.70;;;4.30;;
8887;SDS011;4480;52.370;9.748;2023-09-07T13:02:18;5.43;;;3.73;;
8887;SDS011;4480;52.370;9.748;2023-09-07T13:04:45;5.83;;;4.80;;
8887;SDS011;4480;52.370;9.748;2023-09-07T13:07:12;5.90;;;4.23;;
8887;SDS011;4480;52.370;9.748;2023-09-07T13:09:39;6.93;;;4.87;;
8887;SDS011;4480;52.370;9.748;2023-09-07T13:12:06;8.67;;;4.70;;
8887;SDS011;4480;52.370;9.748;2023-09-07T13:14:33;6.27;;;4.90;;
8887;SDS011;4480;52.370;9.748;2023-09-07T13:17:01;5.10;;;4.53;;
8887;SDS011;4480;52.370;9.748;2023-09-07T13:19:28;7.50;;;4.87;;
8887;SDS011;4480;52.370;9.748;2023-09-07T13:21:54;5.23;;;4.73;;
8887;SDS011;4480;52.370;9.748;2023-09-07T13:24:21;5.90;;;5.40;;
8887;SDS011;4480;52.370;9.748;2023-09-07T13:26:50;7.00;;;5.23;;
8887;SDS011;4480;52.370;9.748;2023-09-07T13:29:17;5.90;;;4.83;;
8887;SDS011;4480;52.370;9.748;2023-09-07T13:31:43;6.07;;;4.13;;
8887;SDS011;4480;52.370;9.748;2023-09-07T13:34:11;5.57;;;4.53;;
8887;SDS011;4480;52.370;9.748;2023-09-07T13:36:38;5.30;;;4.33;;
8887;SDS011;4480;52.370;9.748;2023-09-07T13:39:05;4.33;;;3.93;;
8887;SDS011;4480;52.370;9.748;2023-09-07T13:41:32;4.83;;;4.43;;
8887;SDS011;4480;52.370;9.748;2023-09-07T13:43:58;5.17;;;4.37;;
8887;SDS011;4480;52.370;9.748;2023-09-07T13:46:25;4.47;;;4.07;;
8887;SDS011;4480;52.370;9.748;2023-09-07T13:48:53;5.63;;;4.50;;
8887;SDS011;4480;52.370;9.748;2023-09-07T13:51:21;5.20;;;4.20;;
8887;SDS011;4480;52.370;9.748;2023-09-07T13:53:47;4.50;;;4.10;;
8887;SDS011;4480;52.370;9.748;2023-09-07T13:56:15;6.50;;;4.67;;
8887;SDS011;4480;52.370;9.748;2023-09-07T13:58:41;5.33;;;4.47;;
8887;SDS011;4480;52.370;9.748;2023-09-07T14:01:08;4.90;;;4.47;;
8887;SDS011;4480;52.370;9.748;2023-09-07T14:03:35;4.70;;;4.30;;
8887;SDS011;4480;52.370;9.748;2023-09-07T14:06:02;5.80;;;4.20;;
8887;SDS011;4480;52.370;9.748;2023-09-07T14:08:31;5.90;;;4.60;;
8887;SDS011;4480;52.370;9.748;2023-09-07T14:10:59;7.33;;;4.20;;
8887;SDS011;4480;52.370;9.748;2023-09-07T14:13:26;5.43;;;4.10;;
8887;SDS011;4480;52.370;9.748;2023-09-07T14:15:53;4.40;;;4.00;;
8887;SDS011;4480;52.370;9.748;2023-09-07T14:18:20;3.70;;;3.40;;
8887;SDS011;4480;52.370;9.748;2023-09-07T14:20:46;7.00;;;4.63;;
8887;SDS011;4480;52.370;9.748;2023-09-07T14:23:13;5.10;;;4.30;;
8887;SDS011;4480;52.370;9.748;2023-09-07T14:25:41;7.13;;;4.27;;
8887;SDS011;4480;52.370;9.748;2023-09-07T14:28:10;7.07;;;4.33;;
8887;SDS011;4480;52.370;9.748;2023-09-07T14:30:37;5.90;;;5.00;;
8887;SDS011;4480;52.370;9.748;2023-09-07T14:33:03;4.40;;;4.00;;
8887;SDS011;4480;52.370;9.748;2023-09-07T14:35:31;4.97;;;4.47;;
8887;SDS011;4480;52.370;9.748;2023-09-07T14:37:58;5.53;;;4.20;;
8887;SDS011;4480;52.370;9.748;2023-09-07T14:40:25;5.37;;;4.50;;
8887;SDS011;4480;52.370;9.748;2023-09-07T14:42:53;5.23;;;4.70;;
8887;SDS011;4480;52.370;9.748;2023-09-07T14:45:22;5.97;;;5.30;;
8887;SDS011;4480;52.370;9.748;2023-09-07T14:47:49;6.23;;;4.13;;
8887;SDS011;4480;52.370;9.748;2023-09-07T14:50:16;5.03;;;4.50;;
8887;SDS011;4480;52.370;9.748;2023-09-07T14:52:44;5.03;;;4.07;;
8887;SDS011;4480;52.370;9.748;2023-09-07T14:55:12;4.67;;;4.20;;
8887;SDS011;4480;52.370;9.748;2023-09-07T14:57:39;7.77;;;4.57;;
8887;SDS011;4480;52.370;9.748;2023-09-07T15:00:09;5.93;;;4.37;;
8887;SDS011;4480;52.370;9.748;2023-09-07T15:02:37;5.23;;;4.33;;
8887;SDS011;4480;52.370;9.748;2023-09-07T15:05:04;4.90;;;4.50;;
8887;SDS011;4480;52.370;9.748;2023-09-07T15:07:31;4.50;;;4.10;;
8887;SDS011;4480;52.370;9.748;2023-09-07T15:10:03;4.50;;;4.10;;
8887;SDS011;4480;52.370;9.748;2023-09-07T15:12:30;4.57;;;4.17;;
8887;SDS011;4480;52.370;9.748;2023-09-07T15:14:59;5.83;;;4.40;;
8887;SDS011;4480;52.370;9.748;2023-09-07T15:17:28;4.80;;;4.40;;